sensor_id;sensor_type;location;lat;lon;timestamp;pressure;altitude;pressure_sealevel;temperature;humidity
6413;BME280;3239;48.714;9.472;2022-10-16T00:01:30;99105.88;;;14.56;100.00
6413;BME280;3239;48.714;9.472;2022-10-16T00:03:58;99103.63;;;14.55;100.00
6413;BME280;3239;48.714;9.472;2022-10-16T00:06:25;99104.16;;;14.53;100.00
6413;BME280;3239;48.714;9.472;2022-10-16T00:08:51;99108.41;;;14.54;100.00
6413;BME280;3239;48.714;9.472;2022-10-16T00:11:21;99108.41;;;14.54;100.00
6413;BME280;3239;48.714;9.472;2022-10-16T00:13:49;99108.50;;;14.49;100.00
6413;BME280;3239;48.714;9.472;2022-10-16T00:16:16;99107.75;;;14.48;100.00
6413;BME280;3239;48.714;9.472;2022-10-16T00:18:42;99104.78;;;14.46;100.00
6413;BME280;3239;48.714;9.472;2022-10-16T00:21:13;99102.16;;;14.41;100.00
6413;BME280;3239;48.714;9.472;2022-10-16T00:23:39;99100.63;;;14.40;100.00
6413;BME280;3239;48.714;9.472;2022-10-16T00:26:10;99102.44;;;14.37;100.00
6413;BME280;3239;48.714;9.472;2022-10-16T00:28:37;99107.94;;;14.37;100.00
6413;BME280;3239;48.714;9.472;2022-10-16T00:31:08;99113.47;;;14.37;100.00
6413;BME280;3239;48.714;9.472;2022-10-16T00:33:37;99121.22;;;14.39;100.00
6413;BME280;3239;48.714;9.472;2022-10-16T00:36:05;99111.34;;;14.30;100.00
6413;BME280;3239;48.714;9.472;2022-10-16T00:38:31;99114.09;;;14.30;100.00
6413;BME280;3239;48.714;9.472;2022-10-16T00:40:57;99116.09;;;14.30;100.00
6413;BME280;3239;48.714;9.472;2022-10-16T00:46:13;99119.69;;;14.25;100.00
6413;BME280;3239;48.714;9.472;2022-10-16T00:48:41;99115.28;;;14.16;100.00
6413;BME280;3239;48.714;9.472;2022-10-16T00:51:08;99117.63;;;14.12;100.00
6413;BME280;3239;48.714;9.472;2022-10-16T00:53:34;99114.09;;;14.12;100.00
6413;BME280;3239;48.714;9.472;2022-10-16T00:56:01;99111.22;;;14.04;100.00
6413;BME280;3239;48.714;9.472;2022-10-16T00:58:27;99115.16;;;14.09;100.00
6413;BME280;3239;48.714;9.472;2022-10-16T01:00:53;99113.13;;;13.96;100.00
6413;BME280;3239;48.714;9.472;2022-10-16T01:03:32;99120.31;;;13.99;100.00
6413;BME280;3239;48.714;9.472;2022-10-16T01:12:06;99120.69;;;13.90;100.00
6413;BME280;3239;48.714;9.472;2022-10-16T01:14:48;99127.91;;;13.93;100.00
6413;BME280;3239;48.714;9.472;2022-10-16T01:28:49;99156.00;;;13.92;100.00
6413;BME280;3239;48.714;9.472;2022-10-16T01:31:20;99155.94;;;13.97;100.00
6413;BME280;3239;48.714;9.472;2022-10-16T01:34:04;99162.16;;;13.98;100.00
6413;BME280;3239;48.714;9.472;2022-10-16T01:36:52;99162.97;;;13.93;100.00
6413;BME280;3239;48.714;9.472;2022-10-16T01:39:24;99156.00;;;13.92;100.00
6413;BME280;3239;48.714;9.472;2022-10-16T01:42:08;99158.44;;;13.95;100.00
6413;BME280;3239;48.714;9.472;2022-10-16T01:44:36;99151.44;;;13.94;100.00
6413;BME280;3239;48.714;9.472;2022-10-16T01:47:03;99149.13;;;13.98;100.00
6413;BME280;3239;48.714;9.472;2022-10-16T01:49:34;99150.72;;;13.94;100.00
6413;BME280;3239;48.714;9.472;2022-10-16T01:52:06;99153.69;;;13.96;100.00
6413;BME280;3239;48.714;9.472;2022-10-16T01:54:36;99154.19;;;13.94;100.00
6413;BME280;3239;48.714;9.472;2022-10-16T01:57:05;99152.72;;;13.93;100.00
6413;BME280;3239;48.714;9.472;2022-10-16T01:59:37;99142.53;;;13.88;100.00
6413;BME280;3239;48.714;9.472;2022-10-16T02:02:07;99145.50;;;13.90;100.00
6413;BME280;3239;48.714;9.472;2022-10-16T02:04:41;99148.25;;;13.90;100.00
6413;BME280;3239;48.714;9.472;2022-10-16T02:07:08;99142.00;;;13.90;100.00
6413;BME280;3239;48.714;9.472;2022-10-16T02:09:35;99146.25;;;13.91;100.00
6413;BME280;3239;48.714;9.472;2022-10-16T02:12:23;99147.50;;;13.90;100.00
6413;BME280;3239;48.714;9.472;2022-10-16T02:14:51;99140.53;;;13.89;100.00
6413;BME280;3239;48.714;9.472;2022-10-16T02:17:18;99136.81;;;13.86;100.00
6413;BME280;3239;48.714;9.472;2022-10-16T02:19:45;99145.59;;;13.85;100.00
6413;BME280;3239;48.714;9.472;2022-10-16T02:22:28;99141.19;;;13.76;100.00
6413;BME280;3239;48.714;9.472;2022-10-16T02:27:59;99144.69;;;13.77;100.00
6413;BME280;3239;48.714;9.472;2022-10-16T02:30:49;99152.94;;;13.77;100.00
6413;BME280;3239;48.714;9.472;2022-10-16T02:33:16;99159.88;;;13.83;100.00
6413;BME280;3239;48.714;9.472;2022-10-16T02:35:46;99168.66;;;13.82;100.00
6413;BME280;3239;48.714;9.472;2022-10-16T02:38:14;99166.88;;;13.84;100.00
6413;BME280;3239;48.714;9.472;2022-10-16T02:40:41;99156.09;;;13.86;100.00
6413;BME280;3239;48.714;9.472;2022-10-16T02:43:07;99162.00;;;13.90;100.00
6413;BME280;3239;48.714;9.472;2022-10-16T02:45:33;99162.00;;;13.90;100.00
6413;BME280;3239;48.714;9.472;2022-10-16T02:47:59;99150.28;;;13.90;100.00
6413;BME280;3239;48.714;9.472;2022-10-16T02:50:24;99139.97;;;13.90;100.00
6413;BME280;3239;48.714;9.472;2022-10-16T02:52:50;99142.00;;;13.90;100.00
6413;BME280;3239;48.714;9.472;2022-10-16T02:55:16;99140.72;;;13.91;100.00
6413;BME280;3239;48.714;9.472;2022-10-16T02:57:42;99142.00;;;13.90;100.00
6413;BME280;3239;48.714;9.472;2022-10-16T03:00:12;99147.72;;;13.92;100.00
6413;BME280;3239;48.714;9.472;2022-10-16T03:02:38;99150.28;;;13.90;100.00
6413;BME280;3239;48.714;9.472;2022-10-16T03:05:04;99152.88;;;13.82;100.00
6413;BME280;3239;48.714;9.472;2022-10-16T03:07:30;99151.69;;;13.78;100.00
6413;BME280;3239;48.714;9.472;2022-10-16T03:09:56;99167.03;;;13.73;100.00
6413;BME280;3239;48.714;9.472;2022-10-16T03:12:22;99163.75;;;13.75;100.00
6413;BME280;3239;48.714;9.472;2022-10-16T03:14:48;99164.72;;;13.77;100.00
6413;BME280;3239;48.714;9.472;2022-10-16T03:17:13;99171.56;;;13.71;100.00
6413;BME280;3239;48.714;9.472;2022-10-16T03:19:42;99161.50;;;13.73;100.00
6413;BME280;3239;48.714;9.472;2022-10-16T03:22:07;99175.78;;;13.72;100.00
6413;BME280;3239;48.714;9.472;2022-10-16T03:24:33;99169.56;;;13.71;100.00
6413;BME280;3239;48.714;9.472;2022-10-16T03:26:59;99168.50;;;13.74;100.00
6413;BME280;3239;48.714;9.472;2022-10-16T03:29:26;99163.22;;;13.76;100.00
6413;BME280;3239;48.714;9.472;2022-10-16T03:31:53;99157.28;;;13.72;100.00
6413;BME280;3239;48.714;9.472;2022-10-16T03:34:18;99158.25;;;13.75;100.00
6413;BME280;3239;48.714;9.472;2022-10-16T03:36:44;99158.03;;;13.73;100.00
6413;BME280;3239;48.714;9.472;2022-10-16T03:39:10;99159.06;;;13.70;100.00
6413;BME280;3239;48.714;9.472;2022-10-16T03:41:36;99161.31;;;13.71;100.00
6413;BME280;3239;48.714;9.472;2022-10-16T03:44:01;99158.31;;;13.69;100.00
6413;BME280;3239;48.714;9.472;2022-10-16T03:46:27;99156.31;;;13.70;100.00
6413;BME280;3239;48.714;9.472;2022-10-16T03:48:53;99154.81;;;13.69;100.00
6413;BME280;3239;48.714;9.472;2022-10-16T03:51:19;99160.34;;;13.69;100.00
6413;BME280;3239;48.714;9.472;2022-10-16T03:53:44;99168.59;;;13.69;100.00
6413;BME280;3239;48.714;9.472;2022-10-16T03:56:10;99174.56;;;13.73;100.00
6413;BME280;3239;48.714;9.472;2022-10-16T03:58:36;99170.28;;;13.72;100.00
6413;BME280;3239;48.714;9.472;2022-10-16T04:01:01;99165.09;;;13.68;100.00
6413;BME280;3239;48.714;9.472;2022-10-16T04:03:27;99165.09;;;13.68;100.00
6413;BME280;3239;48.714;9.472;2022-10-16T04:05:53;99161.06;;;13.69;100.00
6413;BME280;3239;48.714;9.472;2022-10-16T04:08:19;99167.31;;;13.70;100.00
6413;BME280;3239;48.714;9.472;2022-10-16T04:10:45;99165.31;;;13.70;100.00
6413;BME280;3239;48.714;9.472;2022-10-16T04:13:11;99171.34;;;13.69;100.00
6413;BME280;3239;48.714;9.472;2022-10-16T04:15:37;99173.59;;;13.70;100.00
6413;BME280;3239;48.714;9.472;2022-10-16T04:18:04;99169.31;;;13.69;100.00
6413;BME280;3239;48.714;9.472;2022-10-16T04:20:30;99172.06;;;13.69;100.00
6413;BME280;3239;48.714;9.472;2022-10-16T04:22:55;99177.88;;;13.66;100.00
6413;BME280;3239;48.714;9.472;2022-10-16T04:25:21;99166.66;;;13.64;100.00
6413;BME280;3239;48.714;9.472;2022-10-16T04:27:47;99168.91;;;13.65;100.00
6413;BME280;3239;48.714;9.472;2022-10-16T04:30:13;99167.91;;;13.63;100.00
6413;BME280;3239;48.714;9.472;2022-10-16T04:32:40;99178.28;;;13.57;100.00
6413;BME280;3239;48.714;9.472;2022-10-16T04:35:06;99163.97;;;13.58;100.00
6413;BME280;3239;48.714;9.472;2022-10-16T04:37:32;99184.19;;;13.61;100.00
6413;BME280;3239;48.714;9.472;2022-10-16T04:39:58;99181.84;;;13.52;100.00
6413;BME280;3239;48.714;9.472;2022-10-16T04:42:24;99181.59;;;13.50;100.00
6413;BME280;3239;48.714;9.472;2022-10-16T04:44:49;99179.09;;;13.52;100.00
6413;BME280;3239;48.714;9.472;2022-10-16T04:47:15;99181.59;;;13.50;100.00
6413;BME280;3239;48.714;9.472;2022-10-16T04:49:41;99176.09;;;13.50;100.00
6413;BME280;3239;48.714;9.472;2022-10-16T04:52:07;99172.59;;;13.49;100.00
6413;BME280;3239;48.714;9.472;2022-10-16T04:54:34;99174.59;;;13.49;100.00
6413;BME280;3239;48.714;9.472;2022-10-16T04:57:00;99178.63;;;13.48;100.00
6413;BME280;3239;48.714;9.472;2022-10-16T04:59:26;99185.41;;;13.47;100.00
6413;BME280;3239;48.714;9.472;2022-10-16T05:01:51;99194.38;;;13.47;100.00
6413;BME280;3239;48.714;9.472;2022-10-16T05:04:17;99193.13;;;13.48;100.00
6413;BME280;3239;48.714;9.472;2022-10-16T05:06:43;99194.38;;;13.47;100.00
6413;BME280;3239;48.714;9.472;2022-10-16T05:09:09;99197.13;;;13.47;100.00
6413;BME280;3239;48.714;9.472;2022-10-16T05:11:35;99203.63;;;13.50;100.00
6413;BME280;3239;48.714;9.472;2022-10-16T05:14:01;99204.84;;;13.54;100.00
6413;BME280;3239;48.714;9.472;2022-10-16T05:16:28;99203.84;;;13.52;100.00
6413;BME280;3239;48.714;9.472;2022-10-16T05:18:54;99205.56;;;13.55;100.00
6413;BME280;3239;48.714;9.472;2022-10-16T05:21:20;99193.81;;;13.54;100.00
6413;BME280;3239;48.714;9.472;2022-10-16T05:23:46;99204.53;;;13.58;100.00
6413;BME280;3239;48.714;9.472;2022-10-16T05:26:12;99210.56;;;13.56;100.00
6413;BME280;3239;48.714;9.472;2022-10-16T05:28:37;99208.78;;;13.59;100.00
6413;BME280;3239;48.714;9.472;2022-10-16T05:31:10;99215.53;;;13.58;100.00
6413;BME280;3239;48.714;9.472;2022-10-16T05:33:35;99211.75;;;13.61;100.00
6413;BME280;3239;48.714;9.472;2022-10-16T05:36:07;99203.25;;;13.59;100.00
6413;BME280;3239;48.714;9.472;2022-10-16T05:38:35;99210.25;;;13.60;100.00
6413;BME280;3239;48.714;9.472;2022-10-16T05:41:03;99209.53;;;13.59;100.00
6413;BME280;3239;48.714;9.472;2022-10-16T05:43:30;99216.06;;;13.56;100.00
6413;BME280;3239;48.714;9.472;2022-10-16T05:46:14;99214.78;;;13.57;100.00
6413;BME280;3239;48.714;9.472;2022-10-16T05:48:40;99217.53;;;13.57;100.00
6413;BME280;3239;48.714;9.472;2022-10-16T05:51:08;99205.56;;;13.55;100.00
6413;BME280;3239;48.714;9.472;2022-10-16T05:53:37;99213.16;;;13.49;100.00
6413;BME280;3239;48.714;9.472;2022-10-16T05:56:05;99228.41;;;13.50;100.00
6413;BME280;3239;48.714;9.472;2022-10-16T05:58:36;99227.41;;;13.47;100.00
6413;BME280;3239;48.714;9.472;2022-10-16T06:01:07;99224.91;;;13.49;100.00
6413;BME280;3239;48.714;9.472;2022-10-16T06:03:34;99224.38;;;13.51;100.00
6413;BME280;3239;48.714;9.472;2022-10-16T06:06:07;99233.84;;;13.55;100.00
6413;BME280;3239;48.714;9.472;2022-10-16T06:08:33;99231.56;;;13.59;100.00
6413;BME280;3239;48.714;9.472;2022-10-16T06:11:07;99230.97;;;13.66;100.00
6413;BME280;3239;48.714;9.472;2022-10-16T06:13:34;99229.91;;;13.69;100.00
6413;BME280;3239;48.714;9.472;2022-10-16T06:16:00;99238.31;;;13.77;100.00
6413;BME280;3239;48.714;9.472;2022-10-16T06:18:28;99235.72;;;13.84;100.00
6413;BME280;3239;48.714;9.472;2022-10-16T06:20:55;99243.63;;;13.93;100.00
6413;BME280;3239;48.714;9.472;2022-10-16T06:23:21;99247.38;;;13.96;100.00
6413;BME280;3239;48.714;9.472;2022-10-16T06:25:47;99250.72;;;14.07;100.00
6413;BME280;3239;48.714;9.472;2022-10-16T06:28:14;99251.09;;;14.17;100.00
6413;BME280;3239;48.714;9.472;2022-10-16T06:30:41;99262.59;;;14.39;100.00
6413;BME280;3239;48.714;9.472;2022-10-16T06:33:10;99250.41;;;14.11;100.00
6413;BME280;3239;48.714;9.472;2022-10-16T06:35:36;99261.53;;;14.24;100.00
6413;BME280;3239;48.714;9.472;2022-10-16T06:38:02;99257.22;;;14.47;100.00
6413;BME280;3239;48.714;9.472;2022-10-16T06:40:27;99260.63;;;14.53;100.00
6413;BME280;3239;48.714;9.472;2022-10-16T06:42:55;99261.22;;;14.77;100.00
6413;BME280;3239;48.714;9.472;2022-10-16T06:45:21;99261.38;;;14.85;100.00
6413;BME280;3239;48.714;9.472;2022-10-16T06:47:46;99250.38;;;14.66;100.00
6413;BME280;3239;48.714;9.472;2022-10-16T06:50:12;99250.91;;;14.65;100.00
6413;BME280;3239;48.714;9.472;2022-10-16T06:52:38;99232.94;;;14.58;100.00
6413;BME280;3239;48.714;9.472;2022-10-16T06:55:04;99237.56;;;14.69;100.00
6413;BME280;3239;48.714;9.472;2022-10-16T06:57:31;99260.59;;;14.84;100.00
6413;BME280;3239;48.714;9.472;2022-10-16T06:59:56;99266.69;;;14.96;100.00
6413;BME280;3239;48.714;9.472;2022-10-16T07:02:22;99261.63;;;15.00;100.00
6413;BME280;3239;48.714;9.472;2022-10-16T07:04:48;99256.28;;;15.33;100.00
6413;BME280;3239;48.714;9.472;2022-10-16T07:07:14;99255.94;;;15.50;100.00
6413;BME280;3239;48.714;9.472;2022-10-16T07:09:40;99254.41;;;16.01;100.00
6413;BME280;3239;48.714;9.472;2022-10-16T07:12:06;99234.78;;;15.78;100.00
6413;BME280;3239;48.714;9.472;2022-10-16T07:14:31;99216.50;;;15.88;100.00
6413;BME280;3239;48.714;9.472;2022-10-16T07:16:57;99191.88;;;15.77;100.00
6413;BME280;3239;48.714;9.472;2022-10-16T07:19:23;99174.44;;;15.69;100.00
6413;BME280;3239;48.714;9.472;2022-10-16T07:21:49;99157.69;;;15.41;100.00
6413;BME280;3239;48.714;9.472;2022-10-16T07:24:16;99139.44;;;15.38;100.00
6413;BME280;3239;48.714;9.472;2022-10-16T07:26:44;99148.34;;;15.31;100.00
6413;BME280;3239;48.714;9.472;2022-10-16T07:29:19;99143.13;;;15.28;100.00
6413;BME280;3239;48.714;9.472;2022-10-16T07:31:46;99132.41;;;15.37;100.00
6413;BME280;3239;48.714;9.472;2022-10-16T07:34:13;99138.38;;;15.28;100.00
6413;BME280;3239;48.714;9.472;2022-10-16T07:36:39;99138.38;;;15.28;100.00
6413;BME280;3239;48.714;9.472;2022-10-16T07:39:05;99156.19;;;15.27;100.00
6413;BME280;3239;48.714;9.472;2022-10-16T07:41:32;99156.41;;;15.16;100.00
6413;BME280;3239;48.714;9.472;2022-10-16T07:43:58;99167.78;;;15.39;100.00
6413;BME280;3239;48.714;9.472;2022-10-16T07:46:28;99181.50;;;15.44;100.00
6413;BME280;3239;48.714;9.472;2022-10-16T07:48:54;99172.38;;;15.36;100.00
6413;BME280;3239;48.714;9.472;2022-10-16T07:51:23;99193.91;;;15.51;100.00
6413;BME280;3239;48.714;9.472;2022-10-16T07:53:50;99199.56;;;15.45;100.00
6413;BME280;3239;48.714;9.472;2022-10-16T07:56:17;99193.94;;;15.38;100.00
6413;BME280;3239;48.714;9.472;2022-10-16T07:58:44;99183.50;;;15.44;100.00
6413;BME280;3239;48.714;9.472;2022-10-16T08:01:13;99187.31;;;15.41;100.00
6413;BME280;3239;48.714;9.472;2022-10-16T08:03:43;99186.47;;;15.46;100.00
6413;BME280;3239;48.714;9.472;2022-10-16T08:06:09;99184.38;;;15.52;100.00
6413;BME280;3239;48.714;9.472;2022-10-16T08:08:35;99196.16;;;15.52;100.00
6413;BME280;3239;48.714;9.472;2022-10-16T08:11:01;99191.47;;;15.60;100.00
6413;BME280;3239;48.714;9.472;2022-10-16T08:13:30;99195.72;;;15.61;100.00
6413;BME280;3239;48.714;9.472;2022-10-16T08:15:55;99187.34;;;15.54;100.00
6413;BME280;3239;48.714;9.472;2022-10-16T08:18:22;99197.81;;;15.68;100.00
6413;BME280;3239;48.714;9.472;2022-10-16T08:20:54;99192.72;;;15.72;100.00
6413;BME280;3239;48.714;9.472;2022-10-16T08:23:20;99192.28;;;15.81;100.00
6413;BME280;3239;48.714;9.472;2022-10-16T08:25:45;99190.72;;;15.73;100.00
6413;BME280;3239;48.714;9.472;2022-10-16T08:28:11;99193.56;;;15.67;100.00
6413;BME280;3239;48.714;9.472;2022-10-16T08:30:37;99198.53;;;15.82;100.00
6413;BME280;3239;48.714;9.472;2022-10-16T08:33:03;99202.09;;;16.03;100.00
6413;BME280;3239;48.714;9.472;2022-10-16T08:35:29;99202.97;;;16.31;100.00
6413;BME280;3239;48.714;9.472;2022-10-16T08:37:55;99198.97;;;16.53;100.00
6413;BME280;3239;48.714;9.472;2022-10-16T08:40:29;99186.34;;;16.65;100.00
6413;BME280;3239;48.714;9.472;2022-10-16T08:50:24;99128.09;;;16.98;100.00
6413;BME280;3239;48.714;9.472;2022-10-16T08:52:52;99117.19;;;17.00;100.00
6413;BME280;3239;48.714;9.472;2022-10-16T08:55:41;99109.16;;;17.17;100.00
6413;BME280;3239;48.714;9.472;2022-10-16T08:58:17;99098.44;;;17.14;100.00
6413;BME280;3239;48.714;9.472;2022-10-16T09:00:57;99083.47;;;17.09;100.00
6413;BME280;3239;48.714;9.472;2022-10-16T09:04:04;99081.06;;;17.41;100.00
6413;BME280;3239;48.714;9.472;2022-10-16T09:18:29;99054.22;;;17.36;100.00
6413;BME280;3239;48.714;9.472;2022-10-16T09:21:23;99058.41;;;17.58;100.00
6413;BME280;3239;48.714;9.472;2022-10-16T09:23:50;99058.28;;;18.31;100.00
6413;BME280;3239;48.714;9.472;2022-10-16T09:26:17;99015.31;;;18.84;100.00
6413;BME280;3239;48.714;9.472;2022-10-16T09:28:44;98947.56;;;18.87;100.00
6413;BME280;3239;48.714;9.472;2022-10-16T09:31:20;98894.91;;;18.57;100.00
6413;BME280;3239;48.714;9.472;2022-10-16T09:33:53;98875.53;;;18.50;100.00
6413;BME280;3239;48.714;9.472;2022-10-16T09:36:21;98883.50;;;18.31;100.00
6413;BME280;3239;48.714;9.472;2022-10-16T09:38:49;98884.81;;;18.30;100.00
6413;BME280;3239;48.714;9.472;2022-10-16T09:41:22;98856.97;;;18.60;100.00
6413;BME280;3239;48.714;9.472;2022-10-16T09:43:56;98866.19;;;18.70;100.00
6413;BME280;3239;48.714;9.472;2022-10-16T09:46:34;98847.69;;;19.29;100.00
6413;BME280;3239;48.714;9.472;2022-10-16T09:49:21;98786.31;;;20.10;100.00
6413;BME280;3239;48.714;9.472;2022-10-16T09:51:48;98688.25;;;20.81;100.00
6413;BME280;3239;48.714;9.472;2022-10-16T09:54:17;98596.53;;;20.38;100.00
6413;BME280;3239;48.714;9.472;2022-10-16T09:56:43;98577.66;;;20.46;100.00
6413;BME280;3239;48.714;9.472;2022-10-16T09:59:14;98547.84;;;21.22;100.00
6413;BME280;3239;48.714;9.472;2022-10-16T10:01:47;98527.63;;;22.21;100.00
6413;BME280;3239;48.714;9.472;2022-10-16T10:04:14;98490.84;;;22.34;100.00
6413;BME280;3239;48.714;9.472;2022-10-16T10:06:53;98489.84;;;21.99;100.00
6413;BME280;3239;48.714;9.472;2022-10-16T10:09:25;98501.00;;;21.59;100.00
6413;BME280;3239;48.714;9.472;2022-10-16T10:12:02;98507.78;;;21.46;100.00
6413;BME280;3239;48.714;9.472;2022-10-16T10:14:49;98511.63;;;21.22;100.00
6413;BME280;3239;48.714;9.472;2022-10-16T10:17:22;98525.44;;;21.01;100.00
6413;BME280;3239;48.714;9.472;2022-10-16T10:19:55;98521.75;;;21.18;100.00
6413;BME280;3239;48.714;9.472;2022-10-16T10:22:40;98525.50;;;21.70;100.00
6413;BME280;3239;48.714;9.472;2022-10-16T10:25:15;98481.34;;;22.90;100.00
6413;BME280;3239;48.714;9.472;2022-10-16T10:28:13;98455.22;;;22.86;100.00
6413;BME280;3239;48.714;9.472;2022-10-16T10:36:37;98453.13;;;22.86;100.00
6413;BME280;3239;48.714;9.472;2022-10-16T10:39:11;98452.81;;;22.92;100.00
6413;BME280;3239;48.714;9.472;2022-10-16T10:42:16;98427.38;;;25.33;100.00
6413;BME280;3239;48.714;9.472;2022-10-16T10:50:49;98383.56;;;27.68;100.00
6413;BME280;3239;48.714;9.472;2022-10-16T10:53:48;98377.53;;;29.46;92.76
6413;BME280;3239;48.714;9.472;2022-10-16T11:08:02;98373.28;;;30.45;72.26
6413;BME280;3239;48.714;9.472;2022-10-16T11:13:39;98370.47;;;30.45;66.91
6413;BME280;3239;48.714;9.472;2022-10-16T11:16:35;98359.22;;;30.47;61.20
6413;BME280;3239;48.714;9.472;2022-10-16T11:19:44;98367.19;;;29.53;69.65
6413;BME280;3239;48.714;9.472;2022-10-16T11:22:36;98362.31;;;31.45;65.85
6413;BME280;3239;48.714;9.472;2022-10-16T11:25:28;98347.84;;;29.63;61.76
6413;BME280;3239;48.714;9.472;2022-10-16T11:28:20;98351.31;;;30.65;61.72
6413;BME280;3239;48.714;9.472;2022-10-16T11:31:24;98346.22;;;31.04;59.12
6413;BME280;3239;48.714;9.472;2022-10-16T11:36:53;98340.63;;;32.06;53.10
6413;BME280;3239;48.714;9.472;2022-10-16T11:39:29;98333.38;;;35.11;44.84
6413;BME280;3239;48.714;9.472;2022-10-16T11:42:22;98333.97;;;35.57;44.06
6413;BME280;3239;48.714;9.472;2022-10-16T11:45:26;98328.22;;;33.75;40.89
6413;BME280;3239;48.714;9.472;2022-10-16T11:48:22;98334.63;;;32.77;45.54
6413;BME280;3239;48.714;9.472;2022-10-16T11:53:56;98333.53;;;32.05;45.72
6413;BME280;3239;48.714;9.472;2022-10-16T11:56:24;98336.59;;;30.68;48.99
6413;BME280;3239;48.714;9.472;2022-10-16T11:59:00;98329.97;;;31.28;48.43
6413;BME280;3239;48.714;9.472;2022-10-16T12:01:37;98331.72;;;30.28;52.82
6413;BME280;3239;48.714;9.472;2022-10-16T12:06:57;98319.72;;;31.17;48.54
6413;BME280;3239;48.714;9.472;2022-10-16T12:09:30;98316.31;;;32.25;45.26
6413;BME280;3239;48.714;9.472;2022-10-16T12:11:58;98320.72;;;31.26;47.41
6413;BME280;3239;48.714;9.472;2022-10-16T12:14:40;98317.94;;;30.59;44.98
6413;BME280;3239;48.714;9.472;2022-10-16T12:17:34;98314.88;;;31.20;47.29
6413;BME280;3239;48.714;9.472;2022-10-16T12:20:27;98316.41;;;30.56;47.51
6413;BME280;3239;48.714;9.472;2022-10-16T12:23:02;98306.75;;;32.38;46.16
6413;BME280;3239;48.714;9.472;2022-10-16T12:25:37;98305.09;;;33.21;41.96
6413;BME280;3239;48.714;9.472;2022-10-16T12:30:41;98304.28;;;32.83;40.87
6413;BME280;3239;48.714;9.472;2022-10-16T12:36:03;98309.13;;;29.87;49.93
6413;BME280;3239;48.714;9.472;2022-10-16T12:38:57;98307.66;;;33.41;42.74
6413;BME280;3239;48.714;9.472;2022-10-16T12:41:35;98309.97;;;32.54;40.56
6413;BME280;3239;48.714;9.472;2022-10-16T12:44:03;98304.19;;;33.44;39.38
6413;BME280;3239;48.714;9.472;2022-10-16T12:51:38;98312.81;;;34.71;34.49
6413;BME280;3239;48.714;9.472;2022-10-16T13:13:39;98316.88;;;31.66;40.10
6413;BME280;3239;48.714;9.472;2022-10-16T13:28:28;98303.53;;;33.83;37.87
6413;BME280;3239;48.714;9.472;2022-10-16T13:30:59;98315.94;;;34.02;37.20
6413;BME280;3239;48.714;9.472;2022-10-16T13:33:37;98308.56;;;32.84;38.12
6413;BME280;3239;48.714;9.472;2022-10-16T13:36:06;98310.44;;;33.37;36.11
6413;BME280;3239;48.714;9.472;2022-10-16T13:38:36;98306.19;;;33.06;37.68
6413;BME280;3239;48.714;9.472;2022-10-16T13:41:06;98303.97;;;33.34;36.72
6413;BME280;3239;48.714;9.472;2022-10-16T13:43:52;98312.19;;;35.24;34.97
6413;BME280;3239;48.714;9.472;2022-10-16T13:46:24;98306.41;;;36.53;32.43
6413;BME280;3239;48.714;9.472;2022-10-16T13:49:03;98301.41;;;38.79;29.79
6413;BME280;3239;48.714;9.472;2022-10-16T13:51:30;98294.69;;;39.63;28.09
6413;BME280;3239;48.714;9.472;2022-10-16T13:53:57;98291.09;;;39.66;27.64
6413;BME280;3239;48.714;9.472;2022-10-16T13:56:30;98293.88;;;36.96;29.76
6413;BME280;3239;48.714;9.472;2022-10-16T13:59:06;98299.78;;;35.59;31.54
6413;BME280;3239;48.714;9.472;2022-10-16T14:01:41;98300.56;;;34.17;35.01
6413;BME280;3239;48.714;9.472;2022-10-16T14:04:11;98295.28;;;34.41;35.12
6413;BME280;3239;48.714;9.472;2022-10-16T14:06:43;98302.25;;;33.21;38.25
6413;BME280;3239;48.714;9.472;2022-10-16T14:09:29;98305.69;;;30.98;44.24
6413;BME280;3239;48.714;9.472;2022-10-16T14:12:01;98302.50;;;30.00;51.51
6413;BME280;3239;48.714;9.472;2022-10-16T14:14:42;98303.97;;;29.03;59.63
6413;BME280;3239;48.714;9.472;2022-10-16T14:17:28;98306.44;;;28.08;71.74
6413;BME280;3239;48.714;9.472;2022-10-16T14:19:58;98303.53;;;28.39;76.80
6413;BME280;3239;48.714;9.472;2022-10-16T14:25:23;98304.16;;;28.20;88.99
6413;BME280;3239;48.714;9.472;2022-10-16T14:28:21;98307.81;;;28.40;83.49
6413;BME280;3239;48.714;9.472;2022-10-16T14:33:36;98305.91;;;27.78;87.13
6413;BME280;3239;48.714;9.472;2022-10-16T14:36:14;98311.09;;;27.84;90.94
6413;BME280;3239;48.714;9.472;2022-10-16T14:38:56;98305.59;;;28.21;93.92
6413;BME280;3239;48.714;9.472;2022-10-16T14:41:23;98304.91;;;27.87;91.75
6413;BME280;3239;48.714;9.472;2022-10-16T14:44:02;98302.53;;;27.33;92.75
6413;BME280;3239;48.714;9.472;2022-10-16T14:46:39;98312.31;;;26.57;100.00
6413;BME280;3239;48.714;9.472;2022-10-16T14:51:35;98322.38;;;25.36;100.00
6413;BME280;3239;48.714;9.472;2022-10-16T14:54:01;98320.59;;;25.04;100.00
6413;BME280;3239;48.714;9.472;2022-10-16T14:56:41;98316.78;;;24.98;100.00
6413;BME280;3239;48.714;9.472;2022-10-16T15:01:57;98321.06;;;24.74;100.00
6413;BME280;3239;48.714;9.472;2022-10-16T15:04:23;98330.38;;;25.03;100.00
6413;BME280;3239;48.714;9.472;2022-10-16T15:06:49;98327.56;;;25.03;100.00
6413;BME280;3239;48.714;9.472;2022-10-16T15:09:14;98325.41;;;25.02;100.00
6413;BME280;3239;48.714;9.472;2022-10-16T15:11:41;98329.22;;;25.33;100.00
6413;BME280;3239;48.714;9.472;2022-10-16T15:14:14;98322.56;;;26.37;100.00
6413;BME280;3239;48.714;9.472;2022-10-16T15:16:40;98335.78;;;26.05;100.00
6413;BME280;3239;48.714;9.472;2022-10-16T15:19:05;98347.50;;;25.75;100.00
6413;BME280;3239;48.714;9.472;2022-10-16T15:21:32;98346.69;;;25.07;100.00
6413;BME280;3239;48.714;9.472;2022-10-16T15:23:59;98363.97;;;24.90;100.00
6413;BME280;3239;48.714;9.472;2022-10-16T15:26:27;98373.78;;;24.52;100.00
6413;BME280;3239;48.714;9.472;2022-10-16T15:28:53;98367.63;;;24.92;100.00
6413;BME280;3239;48.714;9.472;2022-10-16T15:31:19;98369.19;;;24.95;100.00
6413;BME280;3239;48.714;9.472;2022-10-16T15:33:45;98369.78;;;25.19;100.00
6413;BME280;3239;48.714;9.472;2022-10-16T15:36:24;98359.47;;;25.75;100.00
6413;BME280;3239;48.714;9.472;2022-10-16T15:38:50;98346.25;;;26.05;100.00
6413;BME280;3239;48.714;9.472;2022-10-16T15:41:16;98345.84;;;25.56;100.00
6413;BME280;3239;48.714;9.472;2022-10-16T15:43:42;98352.28;;;25.07;100.00